ハルビン の空港の天気 - METARとTAF

ハルビン太平国際空港 ( ZYHB / HRB ) - 中華人民共和国 黒竜江省ハルビン市
飛行場実況気象(Metar)
観測時間06/29 09:00 CST (06/29 01:00 UTC)
風向・風速南南西 7m/s
視程10km以上
天気現象
なし
気温27℃
湿度62%
気圧1005hPa
METARZYHB 290100Z 21007MPS CAVOK 27/19 Q1005 NOSIG
過去の天気等 Google飛行場航空写真 Wunderground天気予報

過去48時間のMETAR

飛行場予報(TAF)
発表時間: 6/29 03:11 CST (6/28 19:11 UTC)
予報対象時間: 29日8時 CST ~ 30日8時 CST
風向・風速南南西 8m/s 瞬間風速 14m/s
視程6,000m
全天の4割程度の雲 雲底高度 910m
TAF ZYHB 281911Z 2900/2924 20008G14MPS 6000 SCT030 TX32/2906Z TN22/2920Z